createdAt,value
2017-09-05T00:02:13.399Z,8.95
2017-09-05T00:04:41.940Z,8.70
2017-09-05T00:07:11.861Z,8.10
2017-09-05T00:09:46.525Z,8.77
2017-09-05T00:12:20.952Z,8.57
2017-09-05T00:14:49.869Z,8.00
2017-09-05T00:30:38.181Z,6.12
2017-09-05T00:33:06.960Z,6.70
2017-09-05T00:35:34.969Z,7.50
2017-09-05T00:38:03.905Z,7.20
2017-09-05T00:40:31.913Z,7.25
2017-09-05T00:42:59.941Z,7.97
2017-09-05T00:45:32.216Z,7.22
2017-09-05T00:48:01.209Z,8.25
2017-09-05T00:50:29.220Z,7.53
2017-09-05T00:52:57.259Z,7.40
2017-09-05T00:55:25.273Z,7.20
2017-09-05T00:57:53.296Z,8.10
2017-09-05T01:00:21.328Z,8.02
2017-09-05T01:02:50.344Z,8.25
2017-09-05T01:05:18.396Z,8.00
2017-09-05T01:07:47.204Z,8.23
2017-09-05T01:10:15.221Z,8.38
2017-09-05T01:12:43.240Z,8.07
2017-09-05T01:15:11.272Z,9.20
2017-09-05T01:17:40.204Z,9.07
2017-09-05T01:20:08.229Z,10.27
2017-09-05T01:22:37.045Z,8.18
2017-09-05T01:25:05.069Z,7.32
2017-09-05T01:27:33.077Z,8.07
2017-09-05T01:30:01.120Z,8.05
2017-09-05T01:32:29.140Z,8.60
2017-09-05T01:34:57.160Z,7.80
2017-09-05T01:37:26.960Z,8.30
2017-09-05T01:39:55.912Z,8.95
2017-09-05T01:42:41.457Z,9.68
2017-09-05T01:45:12.888Z,9.07
2017-09-05T01:47:41.008Z,8.93
2017-09-05T01:50:09.057Z,9.13
2017-09-05T01:52:37.053Z,9.32
2017-09-05T01:55:05.090Z,8.80
2017-09-05T01:57:33.100Z,8.90
2017-09-05T02:00:02.088Z,8.13
2017-09-05T02:02:30.101Z,8.75
2017-09-05T02:04:58.116Z,8.55
2017-09-05T02:07:27.112Z,8.45
2017-09-05T02:09:55.148Z,9.00
2017-09-05T02:12:24.072Z,10.95
2017-09-05T02:14:53.068Z,11.23
2017-09-05T02:17:21.112Z,12.18
2017-09-05T02:19:50.138Z,11.05
2017-09-05T02:22:19.124Z,10.40
2017-09-05T02:24:48.132Z,12.70
2017-09-05T02:27:17.100Z,12.80
2017-09-05T02:29:46.108Z,10.55
2017-09-05T02:32:15.112Z,12.93
2017-09-05T02:34:44.089Z,11.35
2017-09-05T02:37:17.392Z,8.50
2017-09-05T02:39:45.400Z,8.18
2017-09-05T02:42:13.412Z,8.63
2017-09-05T02:44:44.572Z,10.27
2017-09-05T02:47:12.592Z,12.20
2017-09-05T02:49:40.615Z,12.37
2017-09-05T02:52:08.656Z,10.60
2017-09-05T02:54:36.684Z,10.52
2017-09-05T02:57:04.707Z,10.20
2017-09-05T02:59:33.728Z,11.80
2017-09-05T03:02:02.516Z,9.40
2017-09-05T03:04:31.299Z,10.15
2017-09-05T03:06:59.339Z,14.13
2017-09-05T03:09:28.343Z,12.88
2017-09-05T03:11:57.332Z,12.60
2017-09-05T03:14:25.356Z,15.23
2017-09-05T03:16:53.379Z,15.10
2017-09-05T03:19:24.107Z,15.68
2017-09-05T03:21:52.523Z,11.98
2017-09-05T03:24:20.515Z,11.40
2017-09-05T03:26:49.543Z,12.30
2017-09-05T03:29:17.579Z,10.93
2017-09-05T03:31:47.315Z,10.48
2017-09-05T03:34:15.359Z,13.05
2017-09-05T03:36:44.395Z,13.43
2017-09-05T03:39:12.415Z,14.45
2017-09-05T03:41:40.428Z,13.27
2017-09-05T03:44:11.887Z,14.85
2017-09-05T03:46:39.895Z,14.90
2017-09-05T03:49:07.912Z,16.52
2017-09-05T03:51:35.943Z,15.73
2017-09-05T03:54:03.963Z,15.45
2017-09-05T03:56:33.959Z,15.50
2017-09-05T03:59:01.995Z,10.00
2017-09-05T04:01:30.915Z,9.55
2017-09-05T04:03:59.918Z,10.68
2017-09-05T04:06:27.967Z,10.95
2017-09-05T04:08:55.987Z,10.38
2017-09-05T04:11:24.770Z,16.40
2017-09-05T04:13:53.575Z,18.73
2017-09-05T04:16:21.595Z,16.75
2017-09-05T04:18:50.394Z,13.30
2017-09-05T04:21:21.959Z,11.35
2017-09-05T04:23:50.927Z,10.52
2017-09-05T04:26:23.726Z,10.77
2017-09-05T04:28:51.743Z,12.13
2017-09-05T04:31:19.763Z,12.27
2017-09-05T04:33:47.803Z,12.20
2017-09-05T04:36:16.815Z,11.98
2017-09-05T04:38:46.863Z,12.40
2017-09-05T04:41:14.955Z,12.65
2017-09-05T04:43:43.898Z,13.32
2017-09-05T04:46:11.935Z,14.45
2017-09-05T04:48:41.887Z,13.23
2017-09-05T04:51:09.919Z,13.48
2017-09-05T04:53:39.899Z,14.87
2017-09-05T04:56:08.858Z,13.90
2017-09-05T04:58:43.090Z,12.90
2017-09-05T05:01:14.220Z,13.40
2017-09-05T05:03:42.259Z,12.82
2017-09-05T05:06:11.990Z,10.88
2017-09-05T05:08:40.923Z,13.20
2017-09-05T05:11:08.974Z,11.95
2017-09-05T05:13:38.984Z,11.70
2017-09-05T05:16:07.058Z,11.70
2017-09-05T05:18:35.082Z,12.32
2017-09-05T05:21:03.114Z,12.93
2017-09-05T05:23:31.155Z,13.62
2017-09-05T05:26:00.158Z,12.73
2017-09-05T05:28:29.139Z,13.90
2017-09-05T05:30:58.139Z,15.25
2017-09-05T05:33:26.210Z,13.32
2017-09-05T05:35:55.205Z,13.70
2017-09-05T05:38:23.234Z,13.02
2017-09-05T05:40:51.298Z,12.57
2017-09-05T05:43:20.329Z,10.63
2017-09-05T05:45:48.358Z,12.30
2017-09-05T05:48:16.398Z,12.27
2017-09-05T05:50:46.194Z,11.43
2017-09-05T05:53:16.222Z,11.13
2017-09-05T05:55:46.010Z,10.20
2017-09-05T05:58:14.054Z,8.97
2017-09-05T06:00:43.114Z,9.37
2017-09-05T06:03:13.557Z,8.70
2017-09-05T06:05:41.586Z,9.10
2017-09-05T06:08:10.582Z,8.83
2017-09-05T06:10:40.575Z,9.60
2017-09-05T06:13:09.566Z,8.60
2017-09-05T06:15:37.625Z,9.43
2017-09-05T06:18:06.042Z,9.37
2017-09-05T06:20:34.830Z,9.17
2017-09-05T06:23:04.641Z,11.03
2017-09-05T06:25:32.682Z,10.07
2017-09-05T06:28:01.675Z,8.73
2017-09-05T06:30:33.970Z,9.10
2017-09-05T06:33:06.621Z,8.87
2017-09-05T06:35:34.658Z,8.63
2017-09-05T06:38:03.438Z,8.17
2017-09-05T06:40:31.454Z,8.43
2017-09-05T06:43:02.698Z,8.10
2017-09-05T06:45:31.605Z,7.53
2017-09-05T06:47:59.625Z,7.70
2017-09-05T06:50:27.658Z,8.27
2017-09-05T06:52:56.445Z,8.20
2017-09-05T06:55:25.225Z,7.23
2017-09-05T06:57:54.137Z,7.30
2017-09-05T07:00:22.117Z,6.50
2017-09-05T07:02:50.146Z,7.00
2017-09-05T07:05:19.126Z,6.90
2017-09-05T07:07:49.134Z,6.50
2017-09-05T07:10:20.389Z,6.37
2017-09-05T07:12:48.421Z,6.70
2017-09-05T07:15:16.450Z,8.03
2017-09-05T07:17:47.466Z,7.13
2017-09-05T07:20:15.494Z,7.20
2017-09-05T07:22:44.529Z,7.43
2017-09-05T07:25:12.669Z,8.43
2017-09-05T07:27:40.681Z,6.70
2017-09-05T07:30:08.705Z,7.07
2017-09-05T07:32:41.345Z,7.37
2017-09-05T07:35:10.514Z,6.70
2017-09-05T07:37:38.486Z,6.17
2017-09-05T07:40:06.513Z,5.80
2017-09-05T07:42:34.529Z,6.07
2017-09-05T07:45:02.553Z,6.50
2017-09-05T07:47:31.489Z,6.27
2017-09-05T07:50:02.353Z,6.50
2017-09-05T07:52:31.325Z,6.60
2017-09-05T07:55:00.296Z,5.90
2017-09-05T07:57:28.997Z,5.83
2017-09-05T07:59:57.989Z,6.87
2017-09-05T08:02:26.013Z,6.00
2017-09-05T08:04:54.036Z,7.00
2017-09-05T08:07:22.073Z,6.00
2017-09-05T08:09:50.093Z,6.50
2017-09-05T08:12:19.057Z,7.07
2017-09-05T08:14:47.084Z,6.23
2017-09-05T08:17:17.001Z,6.30
2017-09-05T08:19:45.033Z,6.00
2017-09-05T08:22:13.092Z,5.87
2017-09-05T08:24:45.673Z,6.53
2017-09-05T08:27:13.697Z,5.63
2017-09-05T08:29:43.596Z,6.00
2017-09-05T08:32:11.612Z,5.53
2017-09-05T08:34:40.596Z,6.10
2017-09-05T08:37:09.588Z,8.23
2017-09-05T08:39:39.494Z,5.53
2017-09-05T08:42:07.520Z,5.40
2017-09-05T08:44:36.838Z,5.00
2017-09-05T08:47:05.368Z,5.93
2017-09-05T08:49:34.357Z,6.17
2017-09-05T08:52:03.332Z,5.47
2017-09-05T08:54:31.352Z,5.30
2017-09-05T08:56:59.380Z,5.40
2017-09-05T08:59:27.396Z,5.27
2017-09-05T09:01:55.412Z,5.30
2017-09-05T09:04:26.564Z,4.90
2017-09-05T09:06:54.592Z,5.90
2017-09-05T09:09:22.604Z,5.03
2017-09-05T09:11:50.632Z,4.90
2017-09-05T09:14:18.652Z,4.83
2017-09-05T09:16:46.668Z,4.90
2017-09-05T09:19:17.960Z,5.37
2017-09-05T09:21:45.988Z,4.67
2017-09-05T09:24:15.900Z,4.97
2017-09-05T09:26:48.548Z,4.20
2017-09-05T09:29:16.832Z,5.17
2017-09-05T09:31:44.860Z,4.63
2017-09-05T09:34:14.276Z,4.23
2017-09-05T09:36:43.255Z,5.27
2017-09-05T09:39:11.286Z,4.80
2017-09-05T09:41:40.215Z,3.93
2017-09-05T09:44:09.199Z,4.27
2017-09-05T09:46:37.214Z,3.53
2017-09-05T09:49:06.007Z,4.10
2017-09-05T09:51:34.039Z,3.97
2017-09-05T09:54:02.060Z,3.30
2017-09-05T09:56:30.096Z,3.77
2017-09-05T09:58:59.071Z,3.80
2017-09-05T10:01:27.088Z,4.03
2017-09-05T10:03:55.111Z,3.93
2017-09-05T10:06:24.329Z,4.93
2017-09-05T10:08:54.324Z,5.30
2017-09-05T10:11:22.811Z,3.70
2017-09-05T10:13:52.347Z,3.17
2017-09-05T10:16:21.043Z,3.93
2017-09-05T10:18:49.063Z,3.10
2017-09-05T10:21:17.092Z,3.13
2017-09-05T10:23:45.107Z,3.10
2017-09-05T10:26:13.155Z,3.73
2017-09-05T10:28:41.563Z,3.83
2017-09-05T10:31:09.548Z,3.40
2017-09-05T10:33:41.675Z,2.87
2017-09-05T10:36:11.699Z,2.80
2017-09-05T10:38:40.887Z,2.63
2017-09-05T10:41:10.911Z,2.33
2017-09-05T10:43:38.927Z,2.67
2017-09-05T10:46:08.887Z,2.57
2017-09-05T10:48:37.895Z,2.13
2017-09-05T10:51:05.907Z,2.20
2017-09-05T10:53:34.831Z,2.53
2017-09-05T10:56:10.571Z,2.63
2017-09-05T10:58:41.739Z,2.20
2017-09-05T11:01:10.755Z,1.97
2017-09-05T11:03:43.395Z,2.30
2017-09-05T11:06:12.315Z,2.23
2017-09-05T11:08:41.287Z,2.30
2017-09-05T11:11:09.315Z,2.50
2017-09-05T11:13:37.338Z,2.30
2017-09-05T11:16:05.362Z,2.30
2017-09-05T11:18:33.383Z,2.53
2017-09-05T11:21:01.411Z,2.00
2017-09-05T11:23:30.767Z,1.87
2017-09-05T11:25:58.762Z,1.93
2017-09-05T11:28:26.783Z,2.17
2017-09-05T11:30:54.803Z,2.63
2017-09-05T11:33:22.818Z,2.37
2017-09-05T11:35:51.830Z,1.77
2017-09-05T11:38:22.143Z,1.87
2017-09-05T11:40:51.550Z,1.83
2017-09-05T11:43:19.579Z,1.80
2017-09-05T11:45:47.590Z,1.70
2017-09-05T11:48:16.031Z,1.70
2017-09-05T11:50:44.022Z,2.00
2017-09-05T11:53:12.039Z,1.50
2017-09-05T11:55:40.458Z,1.90
2017-09-05T11:58:08.510Z,1.53
2017-09-05T12:00:36.526Z,1.50
2017-09-05T12:03:04.550Z,2.07
2017-09-05T12:05:32.586Z,1.77
2017-09-05T12:08:00.902Z,1.60
2017-09-05T12:10:29.810Z,2.17
2017-09-05T12:12:58.815Z,1.37
2017-09-05T12:15:26.834Z,1.67
2017-09-05T12:17:55.642Z,1.90
2017-09-05T12:20:24.686Z,1.60
2017-09-05T12:22:52.721Z,1.50
2017-09-05T12:25:20.738Z,1.73
2017-09-05T12:27:49.538Z,1.63
2017-09-05T12:30:17.571Z,2.10
2017-09-05T12:32:45.594Z,1.63
2017-09-05T12:35:15.550Z,1.77
2017-09-05T12:37:44.534Z,1.63
2017-09-05T12:40:13.530Z,1.60
2017-09-05T12:42:41.546Z,2.03
2017-09-05T12:45:09.566Z,1.97
2017-09-05T12:47:37.590Z,1.60
2017-09-05T12:50:05.614Z,1.97
2017-09-05T12:52:33.641Z,2.97
2017-09-05T12:55:03.602Z,1.80
2017-09-05T12:57:32.602Z,1.77
2017-09-05T13:00:00.618Z,1.80
2017-09-05T13:02:29.538Z,1.60
2017-09-05T13:04:57.562Z,1.77
2017-09-05T13:07:25.582Z,2.00
2017-09-05T13:09:53.598Z,2.10
2017-09-05T13:12:21.634Z,1.90
2017-09-05T13:14:49.941Z,1.87
2017-09-05T13:17:18.722Z,1.90
2017-09-05T13:19:48.431Z,1.43
2017-09-05T13:22:16.464Z,1.80
2017-09-05T13:24:45.369Z,1.90
2017-09-05T13:27:13.405Z,2.10
2017-09-05T13:29:41.414Z,2.00
2017-09-05T13:32:09.441Z,1.97
2017-09-05T13:34:37.461Z,2.00
2017-09-05T13:37:05.481Z,1.97
2017-09-05T13:39:33.522Z,1.60
2017-09-05T13:42:05.033Z,1.90
2017-09-05T13:44:33.057Z,1.97
2017-09-05T13:47:04.441Z,2.17
2017-09-05T13:49:34.186Z,1.70
2017-09-05T13:52:04.901Z,1.77
2017-09-05T13:54:32.918Z,1.60
2017-09-05T13:57:00.937Z,1.60
2017-09-05T13:59:28.961Z,1.87
2017-09-05T14:01:56.977Z,1.83
2017-09-05T14:04:25.001Z,1.80
2017-09-05T14:06:53.041Z,2.10
2017-09-05T14:09:21.977Z,1.97
2017-09-05T14:11:51.197Z,1.60
2017-09-05T14:14:19.221Z,1.73
2017-09-05T14:16:47.245Z,2.00
2017-09-05T14:19:15.265Z,2.50
2017-09-05T14:21:43.745Z,1.90
2017-09-05T14:24:13.705Z,1.93
2017-09-05T14:26:41.713Z,2.03
2017-09-05T14:29:10.669Z,1.73
2017-09-05T14:31:38.689Z,2.03
2017-09-05T14:34:06.709Z,7.30
2017-09-05T14:36:40.324Z,1.90
2017-09-05T14:39:10.325Z,2.10
2017-09-05T14:41:39.305Z,2.17
2017-09-05T14:44:07.329Z,2.10
2017-09-05T14:46:35.353Z,3.60
2017-09-05T14:49:03.361Z,2.50
2017-09-05T14:51:31.389Z,2.17
2017-09-05T14:53:59.409Z,1.70
2017-09-05T14:56:27.433Z,1.87
2017-09-05T14:58:55.468Z,1.80
2017-09-05T15:01:24.477Z,1.77
2017-09-05T15:03:52.493Z,1.63
2017-09-05T15:06:21.261Z,2.33
2017-09-05T15:08:49.893Z,2.53
2017-09-05T15:11:18.825Z,2.57
2017-09-05T15:13:46.856Z,2.03
2017-09-05T15:16:16.772Z,2.00
2017-09-05T15:18:56.188Z,2.07
2017-09-05T15:21:32.129Z,2.03
2017-09-05T15:24:06.088Z,1.97
2017-09-05T15:26:35.099Z,2.17
2017-09-05T15:29:04.088Z,2.20
2017-09-05T15:31:34.140Z,1.87
2017-09-05T15:34:04.129Z,2.23
2017-09-05T15:36:32.148Z,2.30
2017-09-05T15:39:00.945Z,2.40
2017-09-05T15:41:28.957Z,2.83
2017-09-05T15:43:56.984Z,2.53
2017-09-05T15:46:25.932Z,2.87
2017-09-05T15:48:54.848Z,2.60
2017-09-05T15:51:23.789Z,2.03
2017-09-05T15:53:57.029Z,2.20
2017-09-05T15:56:25.061Z,2.30
2017-09-05T15:58:53.964Z,2.60
2017-09-05T16:01:21.992Z,2.33
2017-09-05T16:03:50.001Z,2.20
2017-09-05T16:06:18.973Z,2.10
2017-09-05T16:08:47.000Z,2.10
2017-09-05T16:11:15.937Z,2.10
2017-09-05T16:13:43.961Z,2.47
2017-09-05T16:16:13.932Z,2.70
2017-09-05T16:18:41.956Z,1.77
2017-09-05T16:21:09.968Z,2.37
2017-09-05T16:23:40.593Z,2.30
2017-09-05T16:26:10.612Z,1.80
2017-09-05T16:28:39.600Z,2.37
2017-09-05T16:31:07.636Z,2.07
2017-09-05T16:33:35.656Z,2.27
2017-09-05T16:36:04.637Z,2.47
2017-09-05T16:38:32.660Z,2.03
2017-09-05T16:41:00.680Z,2.03
2017-09-05T16:43:28.696Z,1.80
2017-09-05T16:45:58.403Z,2.20
2017-09-05T16:48:26.449Z,2.10
2017-09-05T16:50:55.224Z,2.47
2017-09-05T16:53:25.236Z,2.43
2017-09-05T16:55:53.256Z,2.13
2017-09-05T16:58:33.136Z,2.20
2017-09-05T17:01:03.160Z,2.50
2017-09-05T17:03:42.973Z,2.13
2017-09-05T17:06:10.992Z,2.50
2017-09-05T17:08:39.972Z,2.77
2017-09-05T17:11:07.996Z,2.80
2017-09-05T17:13:36.020Z,2.80
2017-09-05T17:16:04.040Z,2.80
2017-09-05T17:18:32.153Z,2.83
2017-09-05T17:21:00.168Z,2.50
2017-09-05T17:23:29.112Z,2.33
2017-09-05T17:25:57.192Z,2.70
2017-09-05T17:28:25.212Z,2.40
2017-09-05T17:30:55.160Z,2.13
2017-09-05T17:33:24.176Z,2.70
2017-09-05T17:35:55.504Z,2.70
2017-09-05T17:38:29.291Z,3.30
2017-09-05T17:40:57.321Z,2.80
2017-09-05T17:43:26.100Z,2.63
2017-09-05T17:45:54.992Z,3.07
2017-09-05T17:48:25.291Z,2.97
2017-09-05T17:50:54.300Z,2.70
2017-09-05T17:53:22.307Z,3.40
2017-09-05T17:55:51.227Z,3.20
2017-09-05T17:58:19.263Z,3.77
2017-09-05T18:00:47.283Z,3.53
2017-09-05T18:03:15.311Z,3.50
2017-09-05T18:05:43.351Z,3.67
2017-09-05T18:08:11.375Z,4.10
2017-09-05T18:10:39.407Z,3.97
2017-09-05T18:13:07.444Z,4.10
2017-09-05T18:15:36.415Z,4.20
2017-09-05T18:18:04.439Z,4.13
2017-09-05T18:20:33.387Z,3.47
2017-09-05T18:23:01.406Z,3.00
2017-09-05T18:25:30.771Z,3.40
2017-09-05T18:27:59.419Z,2.90
2017-09-05T18:30:27.627Z,3.93
2017-09-05T18:32:59.415Z,3.47
2017-09-05T18:35:27.923Z,3.80
2017-09-05T18:38:00.667Z,3.57
2017-09-05T18:40:33.979Z,3.20
2017-09-05T18:43:13.259Z,3.47
2017-09-05T18:45:42.691Z,3.30
2017-09-05T18:48:13.864Z,3.40
2017-09-05T18:50:47.192Z,3.67
2017-09-05T18:53:15.207Z,4.20
2017-09-05T18:55:43.227Z,3.40
2017-09-05T18:58:12.355Z,3.77
2017-09-05T19:00:41.127Z,3.27
2017-09-05T19:03:09.143Z,3.17
2017-09-05T19:05:37.195Z,3.00
2017-09-05T19:08:05.191Z,3.47
2017-09-05T19:10:33.214Z,3.80
2017-09-05T19:13:04.019Z,3.53
2017-09-05T19:15:32.045Z,3.73
2017-09-05T19:18:00.987Z,2.93
2017-09-05T19:20:30.171Z,4.23
2017-09-05T19:22:58.199Z,3.60
2017-09-05T19:25:26.974Z,3.83
2017-09-05T19:27:55.911Z,4.10
2017-09-05T19:30:24.915Z,4.10
2017-09-05T19:32:53.744Z,4.70
2017-09-05T19:35:22.543Z,3.40
2017-09-05T19:37:50.551Z,4.07
2017-09-05T19:40:18.558Z,3.80
2017-09-05T19:42:47.347Z,3.93
2017-09-05T19:45:16.131Z,4.00
2017-09-05T19:47:45.094Z,4.33
2017-09-05T19:50:13.147Z,3.70
2017-09-05T19:52:42.163Z,3.60
2017-09-05T19:55:10.190Z,3.60
2017-09-05T19:57:39.542Z,3.40
2017-09-05T20:00:08.466Z,4.30
2017-09-05T20:02:36.490Z,4.20
2017-09-05T20:05:04.522Z,4.60
2017-09-05T20:07:32.543Z,4.27
2017-09-05T20:10:00.562Z,4.33
2017-09-05T20:12:28.598Z,4.00
2017-09-05T20:14:57.558Z,4.40
2017-09-05T20:17:26.279Z,4.50
2017-09-05T20:19:55.234Z,4.53
2017-09-05T20:22:23.250Z,4.20
2017-09-05T20:24:55.194Z,4.40
2017-09-05T20:27:23.210Z,3.90
2017-09-05T20:29:51.222Z,4.90
2017-09-05T20:32:20.138Z,5.03
2017-09-05T20:34:48.930Z,4.80
2017-09-05T20:37:17.710Z,4.60
2017-09-05T20:39:46.514Z,5.17
2017-09-05T20:42:15.294Z,4.60
2017-09-05T20:44:43.333Z,4.63
2017-09-05T20:47:11.381Z,4.80
2017-09-05T20:49:40.174Z,5.03
2017-09-05T20:52:08.214Z,6.50
2017-09-05T20:54:37.050Z,5.70
2017-09-05T20:57:05.025Z,5.67
2017-09-05T20:59:34.926Z,6.00
2017-09-05T21:02:03.949Z,5.60
2017-09-05T21:04:31.966Z,5.70
2017-09-05T21:07:03.187Z,6.23
2017-09-05T21:09:31.202Z,6.50
2017-09-05T21:11:59.214Z,6.87
2017-09-05T21:14:27.242Z,7.67
2017-09-05T21:16:55.273Z,5.97
2017-09-05T21:19:24.306Z,5.87
2017-09-05T21:21:52.342Z,6.30
2017-09-05T21:24:20.364Z,7.10
2017-09-05T21:26:51.478Z,6.90
2017-09-05T21:29:20.277Z,6.73
2017-09-05T21:31:50.301Z,7.00
2017-09-05T21:34:20.333Z,6.33
2017-09-05T21:36:49.126Z,6.70
2017-09-05T21:39:17.153Z,7.20
2017-09-05T21:41:45.181Z,7.23
2017-09-05T21:44:13.204Z,7.23
2017-09-05T21:46:48.134Z,7.27
2017-09-05T21:49:20.101Z,7.27
2017-09-05T21:51:48.541Z,7.10
2017-09-05T21:54:16.565Z,6.70
2017-09-05T21:56:44.581Z,7.67
2017-09-05T21:59:13.647Z,7.80
2017-09-05T22:01:42.442Z,6.27
2017-09-05T22:04:11.401Z,7.00
2017-09-05T22:06:40.385Z,7.70
2017-09-05T22:09:11.150Z,7.40
2017-09-05T22:11:40.949Z,8.07
2017-09-05T22:14:17.409Z,7.70
2017-09-05T22:16:46.393Z,7.67
2017-09-05T22:19:20.001Z,7.83
2017-09-05T22:21:49.021Z,8.20
2017-09-05T22:24:17.057Z,7.80
2017-09-05T22:26:50.817Z,7.50
2017-09-05T22:29:18.836Z,7.30
2017-09-05T22:31:47.817Z,7.23
2017-09-05T22:34:15.877Z,7.40
2017-09-05T22:36:43.906Z,8.17
2017-09-05T22:39:11.921Z,7.87
2017-09-05T22:41:39.965Z,6.87
2017-09-05T22:44:08.988Z,8.07
2017-09-05T22:46:39.001Z,7.37
2017-09-05T22:49:08.012Z,7.40
2017-09-05T22:51:37.001Z,7.07
2017-09-05T22:54:05.016Z,8.33
2017-09-05T22:56:34.981Z,7.27
2017-09-05T22:59:03.017Z,7.60
2017-09-05T23:01:31.045Z,7.87
2017-09-05T23:03:59.096Z,8.03
2017-09-05T23:06:27.108Z,8.30
2017-09-05T23:08:55.145Z,8.43
2017-09-05T23:11:24.960Z,7.70
2017-09-05T23:13:52.988Z,8.33
2017-09-05T23:16:22.001Z,8.43
2017-09-05T23:18:50.036Z,7.97
2017-09-05T23:21:18.053Z,7.70
2017-09-05T23:23:46.080Z,8.73
2017-09-05T23:26:14.120Z,8.13
2017-09-05T23:28:42.912Z,8.23
2017-09-05T23:31:10.932Z,8.20
2017-09-05T23:33:38.968Z,8.10
2017-09-05T23:36:08.000Z,8.27
2017-09-05T23:38:36.036Z,7.83
2017-09-05T23:41:06.003Z,8.97
2017-09-05T23:43:34.028Z,8.20
2017-09-05T23:46:02.052Z,8.80
2017-09-05T23:48:30.093Z,8.00
2017-09-05T23:50:59.016Z,8.20
2017-09-05T23:53:27.812Z,8.67
2017-09-05T23:55:55.844Z,8.23
2017-09-05T23:58:23.872Z,8.73
